sensor_id;sensor_type;location;lat;lon;timestamp;P1;durP1;ratioP1;P2;durP2;ratioP2
21639;SDS011;10981;45.462;10.974;2023-09-12T00:01:06;16.45;;;12.77;;
21639;SDS011;10981;45.462;10.974;2023-09-12T00:03:35;16.30;;;13.98;;
21639;SDS011;10981;45.462;10.974;2023-09-12T00:06:03;15.38;;;12.40;;
21639;SDS011;10981;45.462;10.974;2023-09-12T00:08:32;16.00;;;11.82;;
21639;SDS011;10981;45.462;10.974;2023-09-12T00:11:05;14.95;;;12.23;;
21639;SDS011;10981;45.462;10.974;2023-09-12T00:13:39;16.38;;;13.52;;
21639;SDS011;10981;45.462;10.974;2023-09-12T00:16:08;17.38;;;13.90;;
21639;SDS011;10981;45.462;10.974;2023-09-12T00:18:39;18.30;;;13.10;;
21639;SDS011;10981;45.462;10.974;2023-09-12T00:21:10;18.73;;;14.07;;
21639;SDS011;10981;45.462;10.974;2023-09-12T00:23:38;15.02;;;13.40;;
21639;SDS011;10981;45.462;10.974;2023-09-12T00:26:06;16.65;;;13.32;;
21639;SDS011;10981;45.462;10.974;2023-09-12T00:28:35;13.82;;;12.27;;
21639;SDS011;10981;45.462;10.974;2023-09-12T00:31:05;14.52;;;12.93;;
21639;SDS011;10981;45.462;10.974;2023-09-12T00:33:33;17.58;;;12.85;;
21639;SDS011;10981;45.462;10.974;2023-09-12T00:36:01;13.85;;;12.32;;
21639;SDS011;10981;45.462;10.974;2023-09-12T00:38:30;14.75;;;12.25;;
21639;SDS011;10981;45.462;10.974;2023-09-12T00:40:58;13.85;;;12.40;;
21639;SDS011;10981;45.462;10.974;2023-09-12T00:43:27;15.07;;;12.15;;
21639;SDS011;10981;45.462;10.974;2023-09-12T00:45:57;14.18;;;12.15;;
21639;SDS011;10981;45.462;10.974;2023-09-12T00:48:26;14.88;;;12.18;;
21639;SDS011;10981;45.462;10.974;2023-09-12T00:50:55;15.45;;;13.20;;
21639;SDS011;10981;45.462;10.974;2023-09-12T00:53:23;16.45;;;12.65;;
21639;SDS011;10981;45.462;10.974;2023-09-12T00:55:54;17.55;;;12.60;;
21639;SDS011;10981;45.462;10.974;2023-09-12T00:58:26;18.58;;;13.07;;
21639;SDS011;10981;45.462;10.974;2023-09-12T01:00:56;17.88;;;13.00;;
21639;SDS011;10981;45.462;10.974;2023-09-12T01:03:27;17.55;;;13.50;;
21639;SDS011;10981;45.462;10.974;2023-09-12T01:05:57;15.80;;;13.68;;
21639;SDS011;10981;45.462;10.974;2023-09-12T01:08:26;15.70;;;12.88;;
21639;SDS011;10981;45.462;10.974;2023-09-12T01:10:55;14.60;;;13.10;;
21639;SDS011;10981;45.462;10.974;2023-09-12T01:13:25;16.05;;;11.98;;
21639;SDS011;10981;45.462;10.974;2023-09-12T01:15:54;19.20;;;12.02;;
21639;SDS011;10981;45.462;10.974;2023-09-12T01:18:22;15.43;;;11.55;;
21639;SDS011;10981;45.462;10.974;2023-09-12T01:29:21;14.95;;;13.10;;
21639;SDS011;10981;45.462;10.974;2023-09-12T01:31:52;18.42;;;13.20;;
21639;SDS011;10981;45.462;10.974;2023-09-12T01:34:21;16.90;;;12.93;;
21639;SDS011;10981;45.462;10.974;2023-09-12T01:36:49;16.58;;;12.38;;
21639;SDS011;10981;45.462;10.974;2023-09-12T01:39:18;15.88;;;12.52;;
21639;SDS011;10981;45.462;10.974;2023-09-12T01:41:46;14.25;;;12.73;;
21639;SDS011;10981;45.462;10.974;2023-09-12T01:44:17;15.65;;;11.68;;
21639;SDS011;10981;45.462;10.974;2023-09-12T01:46:49;14.23;;;11.88;;
21639;SDS011;10981;45.462;10.974;2023-09-12T01:49:21;13.32;;;11.65;;
21639;SDS011;10981;45.462;10.974;2023-09-12T01:51:52;14.38;;;11.70;;
21639;SDS011;10981;45.462;10.974;2023-09-12T01:54:22;14.68;;;11.90;;
21639;SDS011;10981;45.462;10.974;2023-09-12T01:56:50;16.95;;;12.00;;
21639;SDS011;10981;45.462;10.974;2023-09-12T01:59:19;13.93;;;12.15;;
21639;SDS011;10981;45.462;10.974;2023-09-12T02:01:48;17.20;;;12.32;;
21639;SDS011;10981;45.462;10.974;2023-09-12T02:04:16;13.70;;;11.50;;
21639;SDS011;10981;45.462;10.974;2023-09-12T02:06:44;14.77;;;12.15;;
21639;SDS011;10981;45.462;10.974;2023-09-12T02:09:15;15.63;;;12.38;;
21639;SDS011;10981;45.462;10.974;2023-09-12T02:11:43;14.38;;;11.70;;
21639;SDS011;10981;45.462;10.974;2023-09-12T02:14:12;14.13;;;11.90;;
21639;SDS011;10981;45.462;10.974;2023-09-12T02:16:40;19.35;;;13.57;;
21639;SDS011;10981;45.462;10.974;2023-09-12T02:19:11;14.45;;;11.68;;
21639;SDS011;10981;45.462;10.974;2023-09-12T02:21:39;16.17;;;11.77;;
21639;SDS011;10981;45.462;10.974;2023-09-12T02:24:08;16.10;;;11.85;;
21639;SDS011;10981;45.462;10.974;2023-09-12T02:26:36;15.98;;;12.32;;
21639;SDS011;10981;45.462;10.974;2023-09-12T02:29:05;13.13;;;11.82;;
21639;SDS011;10981;45.462;10.974;2023-09-12T02:31:33;14.18;;;12.13;;
21639;SDS011;10981;45.462;10.974;2023-09-12T02:34:01;15.73;;;11.98;;
21639;SDS011;10981;45.462;10.974;2023-09-12T02:36:30;14.20;;;12.57;;
21639;SDS011;10981;45.462;10.974;2023-09-12T02:38:58;13.77;;;12.23;;
21639;SDS011;10981;45.462;10.974;2023-09-12T02:41:27;16.33;;;11.18;;
21639;SDS011;10981;45.462;10.974;2023-09-12T02:43:55;15.88;;;12.70;;
21639;SDS011;10981;45.462;10.974;2023-09-12T02:46:23;12.35;;;11.05;;
21639;SDS011;10981;45.462;10.974;2023-09-12T02:48:52;15.90;;;11.90;;
21639;SDS011;10981;45.462;10.974;2023-09-12T02:51:22;19.98;;;12.40;;
21639;SDS011;10981;45.462;10.974;2023-09-12T02:53:52;13.93;;;11.68;;
21639;SDS011;10981;45.462;10.974;2023-09-12T02:56:20;13.73;;;12.32;;
21639;SDS011;10981;45.462;10.974;2023-09-12T02:58:49;19.58;;;12.85;;
21639;SDS011;10981;45.462;10.974;2023-09-12T03:01:18;16.48;;;13.32;;
21639;SDS011;10981;45.462;10.974;2023-09-12T03:03:47;17.00;;;12.88;;
21639;SDS011;10981;45.462;10.974;2023-09-12T03:06:16;18.25;;;13.73;;
21639;SDS011;10981;45.462;10.974;2023-09-12T03:08:46;18.90;;;13.40;;
21639;SDS011;10981;45.462;10.974;2023-09-12T03:11:15;17.10;;;13.45;;
21639;SDS011;10981;45.462;10.974;2023-09-12T03:13:43;17.65;;;12.68;;
21639;SDS011;10981;45.462;10.974;2023-09-12T03:16:12;16.90;;;12.40;;
21639;SDS011;10981;45.462;10.974;2023-09-12T03:18:41;16.42;;;13.80;;
21639;SDS011;10981;45.462;10.974;2023-09-12T03:21:10;16.98;;;13.10;;
21639;SDS011;10981;45.462;10.974;2023-09-12T03:23:38;17.90;;;13.02;;
21639;SDS011;10981;45.462;10.974;2023-09-12T03:26:07;16.00;;;13.05;;
21639;SDS011;10981;45.462;10.974;2023-09-12T03:28:37;23.38;;;13.82;;
21639;SDS011;10981;45.462;10.974;2023-09-12T03:31:09;17.42;;;12.88;;
21639;SDS011;10981;45.462;10.974;2023-09-12T03:33:40;26.95;;;12.98;;
21639;SDS011;10981;45.462;10.974;2023-09-12T03:36:10;20.13;;;13.52;;
21639;SDS011;10981;45.462;10.974;2023-09-12T03:38:41;19.50;;;13.63;;
21639;SDS011;10981;45.462;10.974;2023-09-12T03:41:11;19.48;;;13.65;;
21639;SDS011;10981;45.462;10.974;2023-09-12T03:43:39;17.40;;;12.82;;
21639;SDS011;10981;45.462;10.974;2023-09-12T03:46:08;15.90;;;14.13;;
21639;SDS011;10981;45.462;10.974;2023-09-12T03:48:37;17.00;;;13.43;;
21639;SDS011;10981;45.462;10.974;2023-09-12T03:51:06;17.67;;;13.50;;
21639;SDS011;10981;45.462;10.974;2023-09-12T03:53:34;18.13;;;14.18;;
21639;SDS011;10981;45.462;10.974;2023-09-12T03:56:02;14.98;;;12.75;;
21639;SDS011;10981;45.462;10.974;2023-09-12T03:58:31;16.05;;;13.65;;
21639;SDS011;10981;45.462;10.974;2023-09-12T04:00:59;17.02;;;13.65;;
21639;SDS011;10981;45.462;10.974;2023-09-12T04:03:28;14.65;;;12.27;;
21639;SDS011;10981;45.462;10.974;2023-09-12T04:05:56;16.52;;;12.88;;
21639;SDS011;10981;45.462;10.974;2023-09-12T04:08:24;17.70;;;13.18;;
21639;SDS011;10981;45.462;10.974;2023-09-12T04:10:55;16.95;;;13.38;;
21639;SDS011;10981;45.462;10.974;2023-09-12T04:13:24;14.05;;;12.02;;
21639;SDS011;10981;45.462;10.974;2023-09-12T04:15:52;15.95;;;12.45;;
21639;SDS011;10981;45.462;10.974;2023-09-12T04:18:21;13.90;;;11.68;;
21639;SDS011;10981;45.462;10.974;2023-09-12T04:20:49;18.05;;;12.93;;
21639;SDS011;10981;45.462;10.974;2023-09-12T04:23:18;16.45;;;13.00;;
21639;SDS011;10981;45.462;10.974;2023-09-12T04:25:46;13.90;;;12.25;;
21639;SDS011;10981;45.462;10.974;2023-09-12T04:28:17;17.58;;;13.13;;
21639;SDS011;10981;45.462;10.974;2023-09-12T04:30:46;14.75;;;13.18;;
21639;SDS011;10981;45.462;10.974;2023-09-12T04:33:14;15.60;;;13.30;;
21639;SDS011;10981;45.462;10.974;2023-09-12T04:35:43;16.75;;;12.82;;
21639;SDS011;10981;45.462;10.974;2023-09-12T04:38:11;15.82;;;12.70;;
21639;SDS011;10981;45.462;10.974;2023-09-12T04:40:41;18.13;;;13.10;;
21639;SDS011;10981;45.462;10.974;2023-09-12T04:43:09;15.90;;;13.45;;
21639;SDS011;10981;45.462;10.974;2023-09-12T04:45:38;14.40;;;12.43;;
21639;SDS011;10981;45.462;10.974;2023-09-12T04:48:06;18.33;;;13.43;;
21639;SDS011;10981;45.462;10.974;2023-09-12T04:50:40;14.30;;;12.85;;
21639;SDS011;10981;45.462;10.974;2023-09-12T04:53:11;17.75;;;12.88;;
21639;SDS011;10981;45.462;10.974;2023-09-12T04:55:39;17.73;;;13.57;;
21639;SDS011;10981;45.462;10.974;2023-09-12T04:58:10;17.38;;;13.25;;
21639;SDS011;10981;45.462;10.974;2023-09-12T05:00:39;15.23;;;13.63;;
21639;SDS011;10981;45.462;10.974;2023-09-12T05:03:08;15.50;;;12.63;;
21639;SDS011;10981;45.462;10.974;2023-09-12T05:05:36;17.52;;;13.30;;
21639;SDS011;10981;45.462;10.974;2023-09-12T05:08:05;18.92;;;12.18;;
21639;SDS011;10981;45.462;10.974;2023-09-12T05:10:37;16.45;;;12.07;;
21639;SDS011;10981;45.462;10.974;2023-09-12T05:13:07;14.27;;;11.90;;
21639;SDS011;10981;45.462;10.974;2023-09-12T05:15:35;22.50;;;13.23;;
21639;SDS011;10981;45.462;10.974;2023-09-12T05:18:15;18.90;;;12.68;;
21639;SDS011;10981;45.462;10.974;2023-09-12T05:20:43;17.33;;;13.23;;
21639;SDS011;10981;45.462;10.974;2023-09-12T05:23:12;14.50;;;12.55;;
21639;SDS011;10981;45.462;10.974;2023-09-12T05:25:40;15.75;;;13.02;;
21639;SDS011;10981;45.462;10.974;2023-09-12T05:28:09;17.10;;;12.75;;
21639;SDS011;10981;45.462;10.974;2023-09-12T05:30:37;16.25;;;13.25;;
21639;SDS011;10981;45.462;10.974;2023-09-12T05:33:05;19.55;;;14.02;;
21639;SDS011;10981;45.462;10.974;2023-09-12T05:35:34;16.33;;;13.23;;
21639;SDS011;10981;45.462;10.974;2023-09-12T05:38:04;19.23;;;13.23;;
21639;SDS011;10981;45.462;10.974;2023-09-12T05:40:33;19.80;;;14.68;;
21639;SDS011;10981;45.462;10.974;2023-09-12T05:43:01;19.48;;;14.25;;
21639;SDS011;10981;45.462;10.974;2023-09-12T05:45:29;21.23;;;14.88;;
21639;SDS011;10981;45.462;10.974;2023-09-12T05:48:03;21.15;;;14.75;;
21639;SDS011;10981;45.462;10.974;2023-09-12T05:50:36;17.15;;;14.70;;
21639;SDS011;10981;45.462;10.974;2023-09-12T05:53:05;19.75;;;15.15;;
21639;SDS011;10981;45.462;10.974;2023-09-12T05:55:38;16.23;;;13.43;;
21639;SDS011;10981;45.462;10.974;2023-09-12T05:58:06;20.40;;;14.40;;
21639;SDS011;10981;45.462;10.974;2023-09-12T06:00:35;16.13;;;13.13;;
21639;SDS011;10981;45.462;10.974;2023-09-12T06:03:04;23.63;;;14.10;;
21639;SDS011;10981;45.462;10.974;2023-09-12T06:05:32;15.55;;;13.45;;
21639;SDS011;10981;45.462;10.974;2023-09-12T06:08:00;18.45;;;12.80;;
21639;SDS011;10981;45.462;10.974;2023-09-12T06:10:29;17.73;;;13.10;;
21639;SDS011;10981;45.462;10.974;2023-09-12T06:12:57;16.27;;;12.20;;
21639;SDS011;10981;45.462;10.974;2023-09-12T06:15:25;19.13;;;12.63;;
21639;SDS011;10981;45.462;10.974;2023-09-12T06:17:57;14.27;;;11.73;;
21639;SDS011;10981;45.462;10.974;2023-09-12T06:20:25;15.57;;;10.85;;
21639;SDS011;10981;45.462;10.974;2023-09-12T06:22:55;14.32;;;12.65;;
21639;SDS011;10981;45.462;10.974;2023-09-12T06:25:23;15.18;;;12.60;;
21639;SDS011;10981;45.462;10.974;2023-09-12T06:27:52;15.23;;;12.25;;
21639;SDS011;10981;45.462;10.974;2023-09-12T06:30:20;13.88;;;11.55;;
21639;SDS011;10981;45.462;10.974;2023-09-12T06:32:48;18.33;;;12.90;;
21639;SDS011;10981;45.462;10.974;2023-09-12T06:35:17;18.02;;;12.57;;
21639;SDS011;10981;45.462;10.974;2023-09-12T06:37:46;19.52;;;13.57;;
21639;SDS011;10981;45.462;10.974;2023-09-12T06:40:14;20.92;;;13.90;;
21639;SDS011;10981;45.462;10.974;2023-09-12T06:42:42;19.80;;;13.27;;
21639;SDS011;10981;45.462;10.974;2023-09-12T06:45:11;20.52;;;13.57;;
21639;SDS011;10981;45.462;10.974;2023-09-12T06:47:39;19.02;;;13.80;;
21639;SDS011;10981;45.462;10.974;2023-09-12T06:50:08;20.73;;;15.23;;
21639;SDS011;10981;45.462;10.974;2023-09-12T06:52:42;24.40;;;16.17;;
21639;SDS011;10981;45.462;10.974;2023-09-12T06:55:10;20.25;;;15.38;;
21639;SDS011;10981;45.462;10.974;2023-09-12T06:57:38;17.45;;;13.82;;
21639;SDS011;10981;45.462;10.974;2023-09-12T07:00:07;20.30;;;14.50;;
21639;SDS011;10981;45.462;10.974;2023-09-12T07:02:37;17.60;;;14.50;;
21639;SDS011;10981;45.462;10.974;2023-09-12T07:05:06;25.67;;;15.90;;
21639;SDS011;10981;45.462;10.974;2023-09-12T07:07:35;23.20;;;14.52;;
21639;SDS011;10981;45.462;10.974;2023-09-12T07:10:03;23.42;;;13.85;;
21639;SDS011;10981;45.462;10.974;2023-09-12T07:12:50;25.30;;;14.73;;
21639;SDS011;10981;45.462;10.974;2023-09-12T07:15:22;16.33;;;13.23;;
21639;SDS011;10981;45.462;10.974;2023-09-12T07:17:54;15.77;;;12.95;;
21639;SDS011;10981;45.462;10.974;2023-09-12T07:20:23;15.05;;;13.40;;
21639;SDS011;10981;45.462;10.974;2023-09-12T07:22:53;18.15;;;14.02;;
21639;SDS011;10981;45.462;10.974;2023-09-12T07:25:21;22.02;;;13.20;;
21639;SDS011;10981;45.462;10.974;2023-09-12T07:27:51;21.77;;;13.50;;
21639;SDS011;10981;45.462;10.974;2023-09-12T07:30:19;19.15;;;13.38;;
21639;SDS011;10981;45.462;10.974;2023-09-12T07:32:48;24.60;;;13.75;;
21639;SDS011;10981;45.462;10.974;2023-09-12T07:35:19;18.60;;;12.35;;
21639;SDS011;10981;45.462;10.974;2023-09-12T07:37:51;23.83;;;12.35;;
21639;SDS011;10981;45.462;10.974;2023-09-12T07:40:19;16.42;;;12.85;;
21639;SDS011;10981;45.462;10.974;2023-09-12T07:42:47;21.95;;;12.77;;
21639;SDS011;10981;45.462;10.974;2023-09-12T07:45:16;19.30;;;13.52;;
21639;SDS011;10981;45.462;10.974;2023-09-12T07:47:44;18.67;;;14.25;;
21639;SDS011;10981;45.462;10.974;2023-09-12T07:50:14;19.00;;;14.10;;
21639;SDS011;10981;45.462;10.974;2023-09-12T07:52:42;22.23;;;17.25;;
21639;SDS011;10981;45.462;10.974;2023-09-12T07:55:11;27.20;;;17.38;;
21639;SDS011;10981;45.462;10.974;2023-09-12T07:57:39;23.15;;;16.90;;
21639;SDS011;10981;45.462;10.974;2023-09-12T08:00:08;24.02;;;16.05;;
21639;SDS011;10981;45.462;10.974;2023-09-12T08:02:40;27.25;;;17.15;;
21639;SDS011;10981;45.462;10.974;2023-09-12T08:05:08;22.33;;;16.02;;
21639;SDS011;10981;45.462;10.974;2023-09-12T08:07:36;25.67;;;16.42;;
21639;SDS011;10981;45.462;10.974;2023-09-12T08:10:05;22.38;;;15.52;;
21639;SDS011;10981;45.462;10.974;2023-09-12T08:12:36;19.80;;;15.00;;
21639;SDS011;10981;45.462;10.974;2023-09-12T08:15:11;21.42;;;15.48;;
21639;SDS011;10981;45.462;10.974;2023-09-12T08:17:40;20.67;;;14.25;;
21639;SDS011;10981;45.462;10.974;2023-09-12T08:20:08;22.95;;;16.27;;
21639;SDS011;10981;45.462;10.974;2023-09-12T08:22:37;21.40;;;14.13;;
21639;SDS011;10981;45.462;10.974;2023-09-12T08:25:06;20.58;;;13.55;;
21639;SDS011;10981;45.462;10.974;2023-09-12T08:27:35;20.70;;;12.25;;
21639;SDS011;10981;45.462;10.974;2023-09-12T08:30:04;18.30;;;11.93;;
21639;SDS011;10981;45.462;10.974;2023-09-12T08:32:33;16.00;;;12.13;;
21639;SDS011;10981;45.462;10.974;2023-09-12T08:35:01;20.70;;;12.90;;
21639;SDS011;10981;45.462;10.974;2023-09-12T08:37:31;14.82;;;12.32;;
21639;SDS011;10981;45.462;10.974;2023-09-12T08:39:59;16.92;;;12.52;;
21639;SDS011;10981;45.462;10.974;2023-09-12T08:42:28;22.08;;;12.90;;
21639;SDS011;10981;45.462;10.974;2023-09-12T08:45:01;18.50;;;12.57;;
21639;SDS011;10981;45.462;10.974;2023-09-12T08:47:30;24.63;;;14.80;;
21639;SDS011;10981;45.462;10.974;2023-09-12T08:50:01;21.17;;;14.73;;
21639;SDS011;10981;45.462;10.974;2023-09-12T08:52:30;21.08;;;13.45;;
21639;SDS011;10981;45.462;10.974;2023-09-12T08:54:58;28.25;;;17.58;;
21639;SDS011;10981;45.462;10.974;2023-09-12T08:57:27;23.52;;;14.27;;
21639;SDS011;10981;45.462;10.974;2023-09-12T08:59:57;23.05;;;14.77;;
21639;SDS011;10981;45.462;10.974;2023-09-12T09:02:29;23.67;;;15.90;;
21639;SDS011;10981;45.462;10.974;2023-09-12T09:04:58;22.15;;;15.35;;
21639;SDS011;10981;45.462;10.974;2023-09-12T09:07:28;24.67;;;16.15;;
21639;SDS011;10981;45.462;10.974;2023-09-12T09:09:59;19.00;;;14.55;;
21639;SDS011;10981;45.462;10.974;2023-09-12T09:12:34;19.77;;;14.10;;
21639;SDS011;10981;45.462;10.974;2023-09-12T09:17:53;15.18;;;12.98;;
21639;SDS011;10981;45.462;10.974;2023-09-12T09:20:25;17.55;;;11.63;;
21639;SDS011;10981;45.462;10.974;2023-09-12T09:22:59;18.08;;;11.27;;
21639;SDS011;10981;45.462;10.974;2023-09-12T09:25:28;23.25;;;12.68;;
21639;SDS011;10981;45.462;10.974;2023-09-12T09:27:56;24.20;;;14.65;;
21639;SDS011;10981;45.462;10.974;2023-09-12T09:30:40;24.50;;;13.50;;
21639;SDS011;10981;45.462;10.974;2023-09-12T09:33:13;25.35;;;14.15;;
21639;SDS011;10981;45.462;10.974;2023-09-12T09:35:42;19.60;;;14.30;;
21639;SDS011;10981;45.462;10.974;2023-09-12T09:38:12;20.80;;;14.90;;
21639;SDS011;10981;45.462;10.974;2023-09-12T09:40:46;20.60;;;14.20;;
21639;SDS011;10981;45.462;10.974;2023-09-12T09:43:19;22.55;;;14.48;;
21639;SDS011;10981;45.462;10.974;2023-09-12T09:45:48;22.60;;;15.13;;
21639;SDS011;10981;45.462;10.974;2023-09-12T09:48:20;26.38;;;15.77;;
21639;SDS011;10981;45.462;10.974;2023-09-12T09:50:50;27.52;;;15.32;;
21639;SDS011;10981;45.462;10.974;2023-09-12T09:53:28;17.55;;;14.18;;
21639;SDS011;10981;45.462;10.974;2023-09-12T09:56:09;19.77;;;14.95;;
21639;SDS011;10981;45.462;10.974;2023-09-12T09:58:55;19.17;;;13.50;;
21639;SDS011;10981;45.462;10.974;2023-09-12T10:01:27;19.85;;;13.45;;
21639;SDS011;10981;45.462;10.974;2023-09-12T10:04:00;23.52;;;15.55;;
21639;SDS011;10981;45.462;10.974;2023-09-12T10:06:30;21.58;;;14.55;;
21639;SDS011;10981;45.462;10.974;2023-09-12T10:09:06;19.42;;;14.07;;
21639;SDS011;10981;45.462;10.974;2023-09-12T10:11:38;17.70;;;12.93;;
21639;SDS011;10981;45.462;10.974;2023-09-12T10:14:08;24.50;;;14.65;;
21639;SDS011;10981;45.462;10.974;2023-09-12T10:16:44;22.92;;;13.80;;
21639;SDS011;10981;45.462;10.974;2023-09-12T10:19:16;27.55;;;15.65;;
21639;SDS011;10981;45.462;10.974;2023-09-12T10:24:49;25.27;;;15.50;;
21639;SDS011;10981;45.462;10.974;2023-09-12T10:27:19;23.30;;;16.17;;
21639;SDS011;10981;45.462;10.974;2023-09-12T10:29:49;19.30;;;15.15;;
21639;SDS011;10981;45.462;10.974;2023-09-12T10:32:20;23.95;;;16.75;;
21639;SDS011;10981;45.462;10.974;2023-09-12T10:34:49;17.42;;;14.40;;
21639;SDS011;10981;45.462;10.974;2023-09-12T10:37:22;20.35;;;14.80;;
21639;SDS011;10981;45.462;10.974;2023-09-12T10:39:54;17.10;;;13.70;;
21639;SDS011;10981;45.462;10.974;2023-09-12T10:42:25;15.55;;;13.82;;
21639;SDS011;10981;45.462;10.974;2023-09-12T10:44:55;17.27;;;14.25;;
21639;SDS011;10981;45.462;10.974;2023-09-12T10:47:26;23.67;;;15.50;;
21639;SDS011;10981;45.462;10.974;2023-09-12T10:49:56;17.25;;;14.25;;
21639;SDS011;10981;45.462;10.974;2023-09-12T10:52:28;18.88;;;15.55;;
21639;SDS011;10981;45.462;10.974;2023-09-12T10:54:56;23.65;;;16.98;;
21639;SDS011;10981;45.462;10.974;2023-09-12T10:57:26;20.20;;;17.30;;
21639;SDS011;10981;45.462;10.974;2023-09-12T11:02:33;22.27;;;14.82;;
21639;SDS011;10981;45.462;10.974;2023-09-12T11:05:03;19.33;;;14.18;;
21639;SDS011;10981;45.462;10.974;2023-09-12T11:07:55;22.88;;;14.32;;
21639;SDS011;10981;45.462;10.974;2023-09-12T11:10:25;24.48;;;16.40;;
21639;SDS011;10981;45.462;10.974;2023-09-12T11:12:55;22.20;;;15.90;;
21639;SDS011;10981;45.462;10.974;2023-09-12T11:15:27;19.47;;;15.90;;
21639;SDS011;10981;45.462;10.974;2023-09-12T11:20:52;22.83;;;16.27;;
21639;SDS011;10981;45.462;10.974;2023-09-12T11:23:33;18.13;;;15.02;;
21639;SDS011;10981;45.462;10.974;2023-09-12T11:26:03;24.33;;;15.52;;
21639;SDS011;10981;45.462;10.974;2023-09-12T11:28:33;24.00;;;17.70;;
21639;SDS011;10981;45.462;10.974;2023-09-12T11:31:02;20.60;;;16.42;;
21639;SDS011;10981;45.462;10.974;2023-09-12T11:33:31;26.13;;;17.33;;
21639;SDS011;10981;45.462;10.974;2023-09-12T11:36:00;20.55;;;17.65;;
21639;SDS011;10981;45.462;10.974;2023-09-12T11:38:31;23.40;;;16.90;;
21639;SDS011;10981;45.462;10.974;2023-09-12T11:40:59;22.88;;;15.32;;
21639;SDS011;10981;45.462;10.974;2023-09-12T11:43:28;24.70;;;18.25;;
21639;SDS011;10981;45.462;10.974;2023-09-12T11:45:56;21.92;;;15.52;;
21639;SDS011;10981;45.462;10.974;2023-09-12T11:48:28;19.65;;;15.05;;
21639;SDS011;10981;45.462;10.974;2023-09-12T11:50:57;23.00;;;18.15;;
21639;SDS011;10981;45.462;10.974;2023-09-12T11:53:27;23.48;;;16.50;;
21639;SDS011;10981;45.462;10.974;2023-09-12T11:56:01;21.73;;;17.13;;
21639;SDS011;10981;45.462;10.974;2023-09-12T11:58:29;27.38;;;21.55;;
21639;SDS011;10981;45.462;10.974;2023-09-12T12:00:58;25.10;;;18.25;;
21639;SDS011;10981;45.462;10.974;2023-09-12T12:03:27;21.00;;;16.80;;
21639;SDS011;10981;45.462;10.974;2023-09-12T12:05:56;23.15;;;18.73;;
21639;SDS011;10981;45.462;10.974;2023-09-12T12:08:25;27.20;;;21.35;;
21639;SDS011;10981;45.462;10.974;2023-09-12T12:10:59;23.88;;;18.98;;
21639;SDS011;10981;45.462;10.974;2023-09-12T12:13:28;23.98;;;19.33;;
21639;SDS011;10981;45.462;10.974;2023-09-12T12:15:57;21.58;;;17.33;;
21639;SDS011;10981;45.462;10.974;2023-09-12T12:18:25;24.48;;;18.20;;
21639;SDS011;10981;45.462;10.974;2023-09-12T12:20:55;21.00;;;17.45;;
21639;SDS011;10981;45.462;10.974;2023-09-12T12:23:23;21.35;;;18.15;;
21639;SDS011;10981;45.462;10.974;2023-09-12T12:25:52;23.55;;;19.60;;
21639;SDS011;10981;45.462;10.974;2023-09-12T12:28:21;22.95;;;18.85;;
21639;SDS011;10981;45.462;10.974;2023-09-12T12:30:50;18.05;;;14.50;;
21639;SDS011;10981;45.462;10.974;2023-09-12T12:33:22;18.67;;;15.63;;
21639;SDS011;10981;45.462;10.974;2023-09-12T12:36:10;20.70;;;17.85;;
21639;SDS011;10981;45.462;10.974;2023-09-12T12:38:39;18.90;;;15.85;;
21639;SDS011;10981;45.462;10.974;2023-09-12T12:41:30;21.25;;;17.88;;
21639;SDS011;10981;45.462;10.974;2023-09-12T12:44:15;18.60;;;15.95;;
21639;SDS011;10981;45.462;10.974;2023-09-12T12:46:52;23.23;;;16.10;;
21639;SDS011;10981;45.462;10.974;2023-09-12T12:49:21;19.75;;;17.55;;
21639;SDS011;10981;45.462;10.974;2023-09-12T12:51:53;25.23;;;17.67;;
21639;SDS011;10981;45.462;10.974;2023-09-12T12:54:23;19.20;;;16.27;;
21639;SDS011;10981;45.462;10.974;2023-09-12T12:56:51;22.25;;;19.60;;
21639;SDS011;10981;45.462;10.974;2023-09-12T12:59:20;21.05;;;18.55;;
21639;SDS011;10981;45.462;10.974;2023-09-12T13:01:49;19.80;;;17.42;;
21639;SDS011;10981;45.462;10.974;2023-09-12T13:04:20;20.48;;;16.88;;
21639;SDS011;10981;45.462;10.974;2023-09-12T13:06:51;17.20;;;15.35;;
21639;SDS011;10981;45.462;10.974;2023-09-12T13:09:19;20.15;;;16.48;;
21639;SDS011;10981;45.462;10.974;2023-09-12T13:11:51;18.23;;;16.48;;
21639;SDS011;10981;45.462;10.974;2023-09-12T13:14:19;22.50;;;15.63;;
21639;SDS011;10981;45.462;10.974;2023-09-12T13:19:21;20.42;;;15.82;;
21639;SDS011;10981;45.462;10.974;2023-09-12T13:21:49;18.52;;;14.43;;
21639;SDS011;10981;45.462;10.974;2023-09-12T13:24:18;18.77;;;16.65;;
21639;SDS011;10981;45.462;10.974;2023-09-12T13:26:46;19.38;;;15.43;;
21639;SDS011;10981;45.462;10.974;2023-09-12T13:29:15;21.92;;;18.15;;
21639;SDS011;10981;45.462;10.974;2023-09-12T13:31:43;20.42;;;17.77;;
21639;SDS011;10981;45.462;10.974;2023-09-12T13:34:11;20.48;;;16.45;;
21639;SDS011;10981;45.462;10.974;2023-09-12T13:36:40;20.17;;;17.20;;
21639;SDS011;10981;45.462;10.974;2023-09-12T13:39:09;22.88;;;18.00;;
21639;SDS011;10981;45.462;10.974;2023-09-12T13:41:40;19.30;;;16.27;;
21639;SDS011;10981;45.462;10.974;2023-09-12T13:44:09;18.55;;;14.48;;
21639;SDS011;10981;45.462;10.974;2023-09-12T13:46:37;19.85;;;16.27;;
21639;SDS011;10981;45.462;10.974;2023-09-12T13:49:06;17.77;;;15.68;;
21639;SDS011;10981;45.462;10.974;2023-09-12T13:51:34;19.73;;;16.17;;
21639;SDS011;10981;45.462;10.974;2023-09-12T13:54:03;17.42;;;15.27;;
21639;SDS011;10981;45.462;10.974;2023-09-12T13:56:33;17.15;;;15.20;;
21639;SDS011;10981;45.462;10.974;2023-09-12T13:59:03;17.63;;;15.65;;
21639;SDS011;10981;45.462;10.974;2023-09-12T14:01:33;21.10;;;14.32;;
21639;SDS011;10981;45.462;10.974;2023-09-12T14:04:02;17.23;;;14.85;;
21639;SDS011;10981;45.462;10.974;2023-09-12T14:06:32;21.20;;;14.30;;
21639;SDS011;10981;45.462;10.974;2023-09-12T14:09:03;19.25;;;15.52;;
21639;SDS011;10981;45.462;10.974;2023-09-12T14:11:32;19.42;;;14.55;;
21639;SDS011;10981;45.462;10.974;2023-09-12T14:14:03;18.77;;;16.88;;
21639;SDS011;10981;45.462;10.974;2023-09-12T14:16:35;20.33;;;15.98;;
21639;SDS011;10981;45.462;10.974;2023-09-12T14:19:04;16.40;;;14.75;;
21639;SDS011;10981;45.462;10.974;2023-09-12T14:21:33;20.35;;;16.15;;
21639;SDS011;10981;45.462;10.974;2023-09-12T14:24:03;17.95;;;15.57;;
21639;SDS011;10981;45.462;10.974;2023-09-12T14:26:33;19.52;;;14.93;;
21639;SDS011;10981;45.462;10.974;2023-09-12T14:29:01;19.05;;;15.60;;
21639;SDS011;10981;45.462;10.974;2023-09-12T14:31:29;20.02;;;16.25;;
21639;SDS011;10981;45.462;10.974;2023-09-12T14:33:58;17.80;;;14.38;;
21639;SDS011;10981;45.462;10.974;2023-09-12T14:36:26;16.92;;;14.82;;
21639;SDS011;10981;45.462;10.974;2023-09-12T14:38:56;17.70;;;14.15;;
21639;SDS011;10981;45.462;10.974;2023-09-12T14:41:24;18.38;;;16.38;;
21639;SDS011;10981;45.462;10.974;2023-09-12T14:43:53;16.55;;;14.70;;
21639;SDS011;10981;45.462;10.974;2023-09-12T14:46:21;19.02;;;17.08;;